Time;durP1;ratioP1;P1;durP2;ratioP2;P2;SDS_P1;SDS_P2;PMS_P1;PMS_P2;Temp;Humidity;BMP_temperature;BMP_pressure;BME280_temperature;BME280_humidity;BME280_pressure;Samples;Min_cycle;Max_cycle;Signal;HPM_P1;HPM_P2
2021/03/01 00:02:04;;;;;;;21.75;13.35;;;;;;;5.79;75.40;103554.66;4961824;28;20138;-74
2021/03/01 00:04:30;;;;;;;21.98;14.23;;;;;;;5.80;75.22;103561.56;4958415;28;20058;-74
2021/03/01 00:06:56;;;;;;;21.08;14.05;;;;;;;5.71;74.85;103554.88;4964219;28;20065;-74
2021/03/01 00:09:22;;;;;;;22.80;15.38;;;;;;;5.66;75.44;103556.75;4949979;28;20086;-75
2021/03/01 00:11:48;;;;;;;20.80;14.05;;;;;;;5.77;75.35;103563.41;4965947;28;20063;-75
2021/03/01 00:14:14;;;;;;;23.98;15.90;;;;;;;5.72;75.17;103551.41;4957435;28;20519;-76
2021/03/01 00:16:40;;;;;;;21.77;15.18;;;;;;;5.73;74.95;103544.44;4954278;28;20881;-75
2021/03/01 00:19:06;;;;;;;26.52;15.65;;;;;;;5.75;74.86;103543.47;4965025;28;20059;-76
2021/03/01 00:21:32;;;;;;;21.33;15.48;;;;;;;5.79;75.20;103549.44;4953683;28;20795;-76
2021/03/01 00:23:58;;;;;;;25.27;14.85;;;;;;;5.78;74.82;103544.28;4950055;28;20063;-75
2021/03/01 00:26:25;;;;;;;25.85;16.58;;;;;;;5.78;75.50;103552.94;4955697;28;20164;-75
2021/03/01 00:28:51;;;;;;;23.05;15.15;;;;;;;5.70;75.40;103549.72;4954331;28;20059;-75
2021/03/01 00:31:17;;;;;;;23.40;15.82;;;;;;;5.79;74.66;103557.25;4958185;28;20061;-75
2021/03/01 00:33:43;;;;;;;25.90;15.85;;;;;;;5.76;75.19;103557.34;4967012;28;20157;-75
2021/03/01 00:36:09;;;;;;;20.27;14.13;;;;;;;5.81;75.00;103560.66;4941072;28;20826;-75
2021/03/01 00:38:35;;;;;;;21.33;14.95;;;;;;;5.76;75.06;103554.72;4957464;28;20121;-75
2021/03/01 00:41:01;;;;;;;22.92;15.85;;;;;;;5.81;74.77;103560.66;4964727;28;20105;-75
2021/03/01 00:43:36;;;;;;;23.92;15.25;;;;;;;5.83;75.21;103558.84;4952261;28;20553;-75
2021/03/01 00:46:03;;;;;;;25.52;16.98;;;;;;;5.84;74.80;103562.31;4959819;28;20090;-75
2021/03/01 00:48:29;;;;;;;22.88;16.15;;;;;;;5.78;74.96;103554.69;4960881;28;20117;-75
2021/03/01 00:50:55;;;;;;;23.17;16.15;;;;;;;5.82;74.83;103557.16;4960546;28;20620;-75
2021/03/01 00:53:27;;;;;;;24.83;16.13;;;;;;;5.84;74.80;103554.50;4961343;28;20168;-75
2021/03/01 00:55:53;;;;;;;24.13;15.43;;;;;;;5.82;74.64;103545.88;4964069;28;20149;-75
2021/03/01 00:58:19;;;;;;;21.98;16.02;;;;;;;5.89;74.48;103555.22;4967920;28;20058;-75
2021/03/01 01:00:47;;;;;;;24.50;16.65;;;;;;;5.88;74.84;103554.38;4965686;28;20166;-76
2021/03/01 01:03:14;;;;;;;23.77;16.70;;;;;;;5.83;74.98;103548.44;4966620;28;20185;-75
2021/03/01 01:05:41;;;;;;;23.17;16.27;;;;;;;5.88;74.77;103548.28;4947686;28;20268;-76
2021/03/01 01:08:08;;;;;;;25.77;17.13;;;;;;;5.85;74.84;103543.19;4965284;28;20074;-75
2021/03/01 01:10:35;;;;;;;22.50;16.33;;;;;;;5.88;75.07;103546.56;4920273;28;20087;-75
2021/03/01 01:13:02;;;;;;;25.02;16.92;;;;;;;5.84;74.73;103550.16;4955983;28;20134;-75
2021/03/01 01:15:29;;;;;;;26.35;17.45;;;;;;;5.79;75.18;103539.03;4943420;28;20503;-75
2021/03/01 01:17:55;;;;;;;25.90;17.08;;;;;;;5.82;75.02;103543.28;4967099;28;20869;-75
2021/03/01 01:20:21;;;;;;;25.88;17.80;;;;;;;5.77;75.16;103539.97;4966884;28;20063;-75
2021/03/01 01:22:47;;;;;;;24.42;16.90;;;;;;;5.85;74.76;103546.63;4956041;28;20059;-75
2021/03/01 01:25:16;;;;;;;25.52;17.60;;;;;;;5.86;75.14;103556.16;4962893;28;20113;-75
2021/03/01 01:27:42;;;;;;;23.02;16.77;;;;;;;5.84;75.56;103551.88;4942939;28;20438;-75
2021/03/01 01:30:14;;;;;;;25.58;16.52;;;;;;;5.78;74.99;103555.53;4949334;28;20067;-75
2021/03/01 01:32:40;;;;;;;24.15;16.63;;;;;;;5.75;75.74;103545.22;4959097;28;20105;-74
2021/03/01 01:35:08;;;;;;;23.65;16.10;;;;;;;5.78;75.58;103544.28;4966506;28;20055;-75
2021/03/01 01:37:35;;;;;;;22.17;15.38;;;;;;;5.65;75.45;103536.84;4923418;28;20134;-75
2021/03/01 01:40:02;;;;;;;24.73;16.33;;;;;;;5.71;74.92;103541.88;4941085;29;20103;-74
2021/03/01 01:42:28;;;;;;;24.63;16.40;;;;;;;5.77;74.83;103547.78;4959778;28;20094;-74
2021/03/01 01:44:54;;;;;;;24.40;16.77;;;;;;;5.78;75.35;103542.50;4931583;28;20321;-75
2021/03/01 01:47:21;;;;;;;23.42;16.65;;;;;;;5.76;75.42;103539.09;4966508;28;20069;-75
2021/03/01 01:49:47;;;;;;;21.10;14.82;;;;;;;5.73;75.46;103534.84;4956453;28;20977;-75
2021/03/01 01:52:13;;;;;;;21.17;14.82;;;;;;;5.64;74.99;103522.09;4947244;28;20094;-75
2021/03/01 01:54:39;;;;;;;25.15;16.63;;;;;;;5.61;75.04;103522.22;4960362;28;20113;-75
2021/03/01 01:57:06;;;;;;;24.95;16.52;;;;;;;5.66;75.67;103522.06;4967179;28;20153;-75
2021/03/01 01:59:33;;;;;;;22.13;15.70;;;;;;;5.61;75.39;103518.78;4968521;28;20141;-75
2021/03/01 02:02:01;;;;;;;21.70;15.15;;;;;;;5.65;74.95;103521.22;4964508;28;20062;-75
2021/03/01 02:04:34;;;;;;;23.40;16.20;;;;;;;5.62;75.16;103528.28;4962373;28;20631;-74
2021/03/01 02:07:07;;;;;;;21.15;15.30;;;;;;;5.51;75.13;103531.22;4954193;28;20308;-74
2021/03/01 02:10:23;;;;;;;24.13;15.75;;;;;;;5.60;75.35;103528.31;4961331;28;20530;-75
2021/03/01 02:13:04;;;;;;;21.20;14.98;;;;;;;5.52;75.17;103528.56;4957062;28;20899;-74
2021/03/01 02:15:43;;;;;;;21.08;15.43;;;;;;;5.47;75.18;103511.34;4960682;28;20117;-74
2021/03/01 02:18:11;;;;;;;23.20;15.63;;;;;;;5.51;75.41;103516.44;4948496;28;20070;-74
2021/03/01 02:20:47;;;;;;;21.88;15.93;;;;;;;5.48;75.01;103519.13;4961485;28;20090;-74
2021/03/01 02:23:14;;;;;;;23.27;15.65;;;;;;;5.52;75.03;103520.75;4956890;28;20058;-74
2021/03/01 02:25:46;;;;;;;22.98;15.73;;;;;;;5.54;75.28;103513.72;4965391;28;20152;-74
2021/03/01 02:28:14;;;;;;;22.23;15.77;;;;;;;5.53;74.94;103512.03;4959427;28;20054;-74
2021/03/01 02:30:48;;;;;;;24.33;17.50;;;;;;;5.57;74.86;103518.00;4962099;28;20109;-73
2021/03/01 02:33:20;;;;;;;22.80;15.90;;;;;;;5.59;75.20;103508.41;4953612;28;20086;-74
2021/03/01 02:35:52;;;;;;;23.35;15.40;;;;;;;5.57;75.03;103505.00;4958533;28;20065;-74
2021/03/01 02:38:25;;;;;;;26.13;16.38;;;;;;;5.62;74.74;103508.28;4938422;28;20129;-74
2021/03/01 02:40:52;;;;;;;24.20;16.98;;;;;;;5.64;75.25;103514.28;4952477;28;20090;-74
2021/03/01 02:43:19;;;;;;;25.85;17.20;;;;;;;5.63;75.08;103501.34;4952740;28;20515;-74
2021/03/01 02:45:48;;;;;;;25.35;16.90;;;;;;;5.71;74.38;103502.78;4952837;28;20533;-74
2021/03/01 02:48:15;;;;;;;;;;;;;;;5.73;74.39;103510.56;4944862;28;20113;-74
2021/03/01 02:50:43;;;;;;;24.98;17.05;;;;;;;5.73;74.58;103510.56;4953794;28;20051;-74
2021/03/01 02:53:15;;;;;;;22.45;16.00;;;;;;;5.74;74.79;103507.03;4952767;28;20146;-73
2021/03/01 02:55:46;;;;;;;23.92;16.67;;;;;;;5.69;74.26;103504.59;4955091;28;20545;-74
2021/03/01 02:58:17;;;;;;;23.13;15.60;;;;;;;5.77;74.31;103506.13;4961684;28;20081;-73
2021/03/01 03:00:45;;;;;;;23.90;16.40;;;;;;;5.81;74.60;103500.75;4955571;28;20106;-74
2021/03/01 03:03:12;;;;;;;26.10;17.13;;;;;;;5.75;74.63;103495.75;4947227;28;20402;-74
2021/03/01 03:05:44;;;;;;;23.92;17.05;;;;;;;5.80;74.25;103506.00;4964319;28;20098;-74
2021/03/01 03:08:13;;;;;;;22.38;14.32;;;;;;;5.70;74.06;103492.41;4958971;28;20128;-74
2021/03/01 03:10:40;;;;;;;20.42;15.13;;;;;;;5.65;74.17;103497.78;4964276;28;20094;-74
2021/03/01 03:13:08;;;;;;;22.20;15.48;;;;;;;5.66;74.11;103498.63;4948397;28;20086;-74
2021/03/01 03:15:36;;;;;;;23.30;16.58;;;;;;;5.67;74.00;103488.16;4961216;28;20137;-75
2021/03/01 03:18:04;;;;;;;22.80;16.08;;;;;;;5.69;74.44;103495.94;4956758;28;20058;-74
2021/03/01 03:20:30;;;;;;;21.13;14.05;;;;;;;5.58;74.37;103483.25;4964401;28;20149;-74
2021/03/01 03:22:56;;;;;;;21.80;14.75;;;;;;;5.60;74.15;103485.81;4957138;28;20058;-75
2021/03/01 03:25:22;;;;;;;21.95;15.80;;;;;;;5.57;74.51;103480.69;4940103;28;20499;-75
2021/03/01 03:27:49;;;;;;;21.20;15.20;;;;;;;5.60;74.24;103485.81;4957722;28;20158;-75
2021/03/01 03:30:18;;;;;;;20.20;14.88;;;;;;;5.54;74.25;103485.09;4959111;28;20161;-75
2021/03/01 03:32:44;;;;;;;21.45;14.40;;;;;;;5.54;74.35;103473.84;4963617;28;20090;-75
2021/03/01 03:35:12;;;;;;;20.08;14.25;;;;;;;5.54;74.26;103469.47;4944679;28;20525;-74
2021/03/01 03:37:43;;;;;;;22.15;15.88;;;;;;;5.60;74.89;103485.81;4949247;28;20062;-74
2021/03/01 03:40:13;;;;;;;21.50;14.73;;;;;;;5.55;74.56;103476.41;4941938;28;20062;-74
2021/03/01 03:42:41;;;;;;;22.42;15.88;;;;;;;5.51;74.97;103474.78;4949967;28;20063;-74
2021/03/01 03:45:08;;;;;;;20.67;14.40;;;;;;;5.52;74.71;103483.44;4955123;28;20105;-74
2021/03/01 03:47:35;;;;;;;17.92;13.43;;;;;;;5.53;74.30;103480.81;4953348;28;20193;-74
2021/03/01 03:50:04;;;;;;;19.83;15.43;;;;;;;5.47;74.32;103483.59;4962609;28;20073;-74
2021/03/01 03:52:36;;;;;;;19.05;14.35;;;;;;;5.46;74.86;103484.47;4953442;28;20628;-75
2021/03/01 03:55:04;;;;;;;19.38;14.38;;;;;;;5.42;74.95;103475.06;4949812;28;20090;-74
2021/03/01 03:57:36;;;;;;;19.00;14.05;;;;;;;5.47;74.98;103478.41;4965169;28;20086;-74
2021/03/01 04:00:07;;;;;;;20.83;14.20;;;;;;;5.40;74.54;103479.47;4964972;28;20546;-74
2021/03/01 04:02:35;;;;;;;20.10;14.20;;;;;;;5.41;74.56;103481.19;4948019;28;20121;-74
2021/03/01 04:05:04;;;;;;;20.50;13.80;;;;;;;5.35;74.74;103479.63;4935378;28;20055;-74
2021/03/01 04:07:32;;;;;;;17.70;13.68;;;;;;;5.39;74.82;103489.94;4954921;28;20499;-74
2021/03/01 04:10:00;;;;;;;17.73;13.60;;;;;;;5.40;75.08;103489.03;4958394;28;20598;-75
2021/03/01 04:12:29;;;;;;;19.35;13.50;;;;;;;5.35;74.90;103484.84;4963298;28;20325;-74
2021/03/01 04:14:56;;;;;;;17.17;12.93;;;;;;;5.35;75.10;103487.44;4952150;28;20832;-75
2021/03/01 04:17:23;;;;;;;17.73;13.18;;;;;;;5.34;74.71;103480.50;4954194;28;20086;-74
2021/03/01 04:19:51;;;;;;;16.38;12.50;;;;;;;5.33;74.91;103488.34;4954829;28;20116;-74
2021/03/01 04:22:18;;;;;;;17.63;12.70;;;;;;;5.29;74.69;103482.41;4965310;28;20054;-74
2021/03/01 04:24:46;;;;;;;18.05;12.70;;;;;;;5.27;75.05;103478.13;4944074;28;20055;-75
2021/03/01 04:27:12;;;;;;;17.50;12.75;;;;;;;5.20;75.33;103484.44;4947457;29;20136;-74
2021/03/01 04:29:40;;;;;;;16.77;13.32;;;;;;;5.28;74.83;103478.09;4961183;28;20058;-74
2021/03/01 04:32:06;;;;;;;17.27;12.70;;;;;;;5.27;75.15;103483.34;4960213;28;20556;-74
2021/03/01 04:34:33;;;;;;;18.27;13.57;;;;;;;5.21;75.20;103471.38;4963249;28;20146;-74
2021/03/01 04:36:59;;;;;;;17.00;12.50;;;;;;;5.20;74.87;103474.88;4960251;28;20447;-74
2021/03/01 04:39:25;;;;;;;16.58;13.10;;;;;;;5.24;74.99;103478.25;4967025;28;20062;-74
2021/03/01 04:41:52;;;;;;;18.38;13.75;;;;;;;5.24;75.26;103481.69;4959989;28;20450;-74
2021/03/01 04:44:19;;;;;;;20.45;13.63;;;;;;;5.21;75.42;103473.97;4965991;28;20601;-74
2021/03/01 04:46:49;;;;;;;15.70;12.73;;;;;;;5.15;74.92;103481.97;4954419;28;20168;-74
2021/03/01 04:49:15;;;;;;;18.02;12.88;;;;;;;5.17;75.09;103485.38;4966831;28;20774;-74
2021/03/01 04:51:42;;;;;;;17.10;12.82;;;;;;;5.15;74.99;103487.16;4960054;28;20091;-74
2021/03/01 04:54:09;;;;;;;17.38;12.75;;;;;;;5.18;74.82;103488.84;4942867;28;20058;-74
2021/03/01 04:56:44;;;;;;;18.42;12.45;;;;;;;5.09;74.71;103477.78;4949412;28;20510;-74
2021/03/01 04:59:13;;;;;;;19.48;13.40;;;;;;;5.15;75.02;103492.38;4938335;28;20114;-74
2021/03/01 05:01:42;;;;;;;17.10;12.90;;;;;;;5.18;74.96;103481.03;4945440;28;20066;-74
2021/03/01 05:04:09;;;;;;;17.65;12.68;;;;;;;5.24;74.68;103480.84;4941742;28;20331;-75
2021/03/01 05:06:36;;;;;;;17.83;12.77;;;;;;;5.18;75.08;103481.88;4947637;28;20079;-74
2021/03/01 05:09:03;;;;;;;18.27;13.25;;;;;;;5.21;74.84;103478.31;4946067;28;20727;-74
2021/03/01 05:11:37;;;;;;;18.30;12.50;;;;;;;5.18;74.75;103484.50;4966734;28;20100;-74
2021/03/01 05:14:06;;;;;;;17.67;12.68;;;;;;;5.14;74.72;103486.31;4940526;28;20153;-74
2021/03/01 05:16:33;;;;;;;18.00;13.37;;;;;;;5.15;74.58;103492.38;4947235;28;20074;-75
2021/03/01 05:18:59;;;;;;;19.23;13.35;;;;;;;5.19;74.23;103486.19;4949066;28;20150;-75
2021/03/01 05:21:26;;;;;;;17.42;12.75;;;;;;;5.17;74.85;103485.38;4960595;28;20062;-75
2021/03/01 05:23:52;;;;;;;18.10;12.85;;;;;;;5.21;74.38;103489.59;4965221;28;20066;-74
2021/03/01 05:26:19;;;;;;;19.05;13.23;;;;;;;5.22;74.66;103480.03;4955800;28;20097;-74
2021/03/01 05:28:46;;;;;;;18.13;12.95;;;;;;;5.20;74.77;103492.25;4954460;28;20118;-74
2021/03/01 05:31:12;;;;;;;21.45;13.77;;;;;;;5.18;74.52;103492.28;4958141;28;20113;-74
2021/03/01 05:33:38;;;;;;;18.98;13.38;;;;;;;5.13;74.28;103478.56;4948310;28;20054;-75
2021/03/01 05:36:05;;;;;;;19.00;13.60;;;;;;;5.13;74.60;103488.97;4959181;28;20082;-73
2021/03/01 05:38:31;;;;;;;17.13;13.00;;;;;;;5.13;74.69;103486.38;4953651;28;20090;-76
2021/03/01 05:41:00;;;;;;;20.25;13.02;;;;;;;5.17;74.66;103485.38;4960841;28;20090;-74
2021/03/01 05:43:29;;;;;;;18.30;13.68;;;;;;;5.15;74.66;103488.03;4957008;28;20122;-75
2021/03/01 05:45:58;;;;;;;16.98;13.30;;;;;;;5.19;74.15;103487.94;4945153;28;20137;-75
2021/03/01 05:48:27;;;;;;;19.40;14.32;;;;;;;5.22;74.52;103487.84;4956011;28;20479;-74
2021/03/01 05:50:58;;;;;;;20.88;13.88;;;;;;;5.14;74.32;103491.53;4966090;28;20520;-75
2021/03/01 05:53:29;;;;;;;20.98;13.48;;;;;;;5.04;73.91;103479.69;4936849;28;20148;-75
2021/03/01 05:55:59;;;;;;;19.38;12.93;;;;;;;5.06;74.35;103483.09;4960336;28;20462;-75
2021/03/01 05:58:26;;;;;;;17.85;13.25;;;;;;;5.11;74.18;103481.19;4964634;28;20059;-74
2021/03/01 06:00:58;;;;;;;20.88;14.82;;;;;;;5.01;74.43;103476.31;4948181;28;20149;-75
2021/03/01 06:03:27;;;;;;;20.17;14.13;;;;;;;5.00;73.97;103475.47;4965800;28;20058;-74
2021/03/01 06:05:53;;;;;;;19.17;13.95;;;;;;;4.99;74.27;103478.97;4938079;28;20534;-75
2021/03/01 06:08:20;;;;;;;19.05;14.10;;;;;;;4.99;73.66;103486.78;4957875;28;20090;-75
2021/03/01 06:10:46;;;;;;;19.45;13.50;;;;;;;4.92;73.97;103491.31;4955285;28;20051;-75
2021/03/01 06:13:14;;;;;;;21.42;14.50;;;;;;;4.87;74.50;103490.56;4963727;28;20430;-75
2021/03/01 06:15:41;;;;;;;19.63;13.75;;;;;;;4.80;74.34;103488.19;4954130;28;20165;-75
2021/03/01 06:18:11;;;;;;;22.42;14.05;;;;;;;4.81;74.13;103495.97;4961133;28;20161;-76
2021/03/01 06:20:40;;;;;;;19.13;13.63;;;;;;;4.82;74.62;103497.69;4951355;28;20070;-77
2021/03/01 06:23:07;;;;;;;19.38;13.35;;;;;;;4.77;74.68;103490.91;4955531;28;20054;-75
2021/03/01 06:25:34;;;;;;;20.20;13.40;;;;;;;4.66;74.41;103496.38;4966657;28;20846;-74
2021/03/01 06:28:01;;;;;;;18.60;13.27;;;;;;;4.68;74.47;103508.44;4943213;28;20696;-73
2021/03/01 06:30:30;;;;;;;19.35;14.00;;;;;;;4.63;74.68;103510.31;4966743;28;20086;-74
2021/03/01 06:33:10;;;;;;;17.63;12.95;;;;;;;4.53;74.97;103508.88;4943804;28;20478;-75
2021/03/01 06:35:44;;;;;;;19.48;12.82;;;;;;;4.48;75.26;103505.53;4947771;28;20064;-74
2021/03/01 06:38:24;;;;;;;17.63;13.23;;;;;;;4.38;75.15;103504.91;4957417;28;20887;-74
2021/03/01 06:41:17;;;;;;;21.15;13.63;;;;;;;4.41;75.47;103517.84;4938793;28;20091;-73
2021/03/01 06:43:56;;;;;;;19.40;13.55;;;;;;;4.34;75.55;103518.88;4936141;28;20051;-74
2021/03/01 06:46:24;;;;;;;18.80;12.73;;;;;;;4.33;75.61;103519.78;4942480;28;20050;-73
2021/03/01 06:48:51;;;;;;;18.67;13.13;;;;;;;4.25;75.72;103525.16;4948678;28;20106;-73
2021/03/01 06:51:18;;;;;;;18.65;12.90;;;;;;;4.28;75.94;103521.66;4945553;28;20058;-74
2021/03/01 06:53:44;;;;;;;18.80;13.50;;;;;;;4.32;75.58;103528.47;4956582;28;21694;-75
2021/03/01 06:56:14;;;;;;;20.58;13.82;;;;;;;4.31;75.26;103521.56;4967594;28;20458;-75
2021/03/01 06:58:43;;;;;;;18.48;13.45;;;;;;;4.35;75.63;103524.06;4964726;28;20117;-75
2021/03/01 07:01:20;;;;;;;;;;;;;;;4.29;75.65;103531.13;4955611;28;20164;-75
2021/03/01 07:03:49;;;;;;;19.15;13.35;;;;;;;4.32;75.67;103524.13;4957752;28;20382;-75
2021/03/01 07:06:15;;;;;;;;;;;;;;;4.39;75.43;103535.22;4958524;28;20594;-74
2021/03/01 07:08:49;;;;;;;21.83;14.05;;;;;;;4.41;75.16;103533.44;4933796;28;19926;-73
2021/03/01 07:11:24;;;;;;;20.00;13.18;;;;;;;4.35;75.35;103534.44;4941300;28;20058;-75
2021/03/01 07:14:12;;;;;;;20.58;14.50;;;;;;;4.25;75.37;103529.50;4957564;28;20517;-74
2021/03/01 07:16:42;;;;;;;22.90;14.27;;;;;;;4.28;75.38;103527.69;4952662;28;20062;-74
2021/03/01 07:19:13;;;;;;;24.38;15.18;;;;;;;4.27;75.32;103531.19;4946633;28;20051;-75
2021/03/01 07:21:41;;;;;;;21.20;14.75;;;;;;;4.24;74.95;103530.41;4959374;28;20055;-75
2021/03/01 07:24:08;;;;;;;23.10;14.55;;;;;;;4.20;75.39;103537.44;4966060;28;20600;-74
2021/03/01 07:26:35;;;;;;;22.02;16.20;;;;;;;4.19;75.20;103530.50;4962329;28;20055;-75
2021/03/01 07:29:08;;;;;;;22.27;14.95;;;;;;;4.23;75.37;103537.34;4941969;28;20499;-75
2021/03/01 07:31:36;;;;;;;24.73;15.45;;;;;;;4.18;75.52;103540.97;4957458;28;20483;-75
2021/03/01 07:34:04;;;;;;;;;;;;;;;4.12;75.94;103540.22;4942037;28;20090;-74
2021/03/01 07:36:30;;;;;;;20.05;14.30;;;;;;;4.18;75.73;103535.78;4965053;28;20018;-74
2021/03/01 07:39:01;;;;;;;27.15;15.50;;;;;;;4.18;75.78;103536.63;4942164;28;20055;-76
2021/03/01 07:41:28;;;;;;;22.02;13.98;;;;;;;4.13;75.60;103530.66;4964441;28;20063;-75
2021/03/01 07:43:55;;;;;;;19.75;14.18;;;;;;;4.21;75.87;103541.72;4951894;28;20392;-75
2021/03/01 07:46:30;;;;;;;23.90;15.23;;;;;;;4.22;75.89;103533.06;4941711;28;20062;-76
2021/03/01 07:48:58;;;;;;;19.20;13.93;;;;;;;4.31;75.80;103543.22;4957187;28;20129;-75
2021/03/01 07:51:40;;;;;;;19.85;14.45;;;;;;;4.25;75.70;103547.69;4951058;28;20097;-75
2021/03/01 07:54:07;;;;;;;20.60;14.27;;;;;;;4.22;76.03;103540.00;4964938;28;20771;-76
2021/03/01 07:56:39;;;;;;;21.08;14.48;;;;;;;4.30;75.67;103538.06;4935135;28;20073;-77
2021/03/01 07:59:07;;;;;;;22.77;14.88;;;;;;;4.27;75.93;103544.19;4961110;28;20054;-73
2021/03/01 08:01:35;;;;;;;23.10;14.98;;;;;;;4.32;75.98;103546.66;4940443;28;20094;-73
2021/03/01 08:04:01;;;;;;;25.55;15.63;;;;;;;4.31;75.97;103543.22;4961277;28;20062;-76
2021/03/01 08:06:55;;;;;;;22.67;14.45;;;;;;;4.36;75.60;103543.94;4947290;28;20078;-75
2021/03/01 08:09:44;;;;;;;22.73;15.10;;;;;;;4.38;75.99;103535.25;4951183;28;20138;-74
2021/03/01 08:12:12;;;;;;;23.13;14.85;;;;;;;4.31;76.00;103535.44;4950360;28;20145;-76
2021/03/01 08:14:53;;;;;;;22.08;14.98;;;;;;;4.38;75.82;103543.06;4965051;28;20061;-74
2021/03/01 08:17:29;;;;;;;23.63;15.65;;;;;;;4.37;75.65;103539.59;4954438;28;20110;-74
2021/03/01 08:20:12;;;;;;;22.75;14.60;;;;;;;4.42;75.65;103547.28;4941369;28;20063;-75
2021/03/01 08:23:10;;;;;;;25.83;15.57;;;;;;;4.43;75.97;103539.47;4962558;28;20158;-74
2021/03/01 08:25:42;;;;;;;20.73;13.98;;;;;;;4.52;75.72;103538.34;4941725;28;20090;-74
2021/03/01 08:28:36;;;;;;;24.48;15.13;;;;;;;4.55;75.68;103540.88;4956546;28;20118;-74
2021/03/01 08:31:05;;;;;;;20.52;14.80;;;;;;;4.56;75.23;103542.56;4941852;29;20055;-75
2021/03/01 08:33:31;;;;;;;25.25;15.98;;;;;;;4.61;75.48;103543.31;4967250;28;20067;-74
2021/03/01 08:36:00;;;;;;;21.70;14.65;;;;;;;4.64;75.52;103538.00;4962108;28;20207;-75
2021/03/01 08:38:49;;;;;;;;;;;;;;;4.68;75.14;103542.22;4955224;28;20194;-75
2021/03/01 08:41:17;;;;;;;21.48;14.20;;;;;;;4.71;75.37;103533.53;4962772;28;20306;-75
2021/03/01 08:43:46;;;;;;;23.77;15.20;;;;;;;4.67;74.90;103524.09;4967912;28;20058;-76
2021/03/01 08:46:14;;;;;;;20.52;14.73;;;;;;;4.75;75.25;103538.59;4962624;28;20152;-74
2021/03/01 08:48:44;;;;;;;25.60;15.20;;;;;;;4.73;74.63;103529.97;4953977;28;20061;-74
2021/03/01 08:51:11;;;;;;;23.95;15.85;;;;;;;4.78;74.51;103534.19;4941251;28;20286;-75
2021/03/01 08:53:37;;;;;;;26.20;16.15;;;;;;;4.82;74.91;103536.69;4962994;28;20059;-76
2021/03/01 08:56:19;;;;;;;20.42;14.57;;;;;;;4.81;74.64;103540.16;4963730;28;20166;-76
2021/03/01 08:58:45;;;;;;;22.38;14.57;;;;;;;4.77;74.54;103529.91;4967382;28;20094;-75
2021/03/01 09:01:11;;;;;;;23.88;14.73;;;;;;;4.79;74.91;103533.31;4967342;28;20126;-76
2021/03/01 09:03:42;;;;;;;22.98;14.38;;;;;;;4.73;74.65;103529.97;4960498;28;20065;-76
2021/03/01 09:06:09;;;;;;;24.48;14.63;;;;;;;4.75;74.68;103529.94;4937246;28;20090;-75
2021/03/01 09:08:36;;;;;;;22.23;14.50;;;;;;;4.78;74.32;103529.84;4950720;28;20059;-75
2021/03/01 09:11:15;;;;;;;22.83;14.23;;;;;;;4.84;74.79;103534.91;4946646;28;20055;-74
2021/03/01 09:13:43;;;;;;;25.58;15.77;;;;;;;4.87;74.82;103531.34;4924366;28;20137;-75
2021/03/01 09:16:16;;;;;;;24.90;15.07;;;;;;;4.91;74.50;103530.38;4949447;28;20129;-75
2021/03/01 09:18:46;;;;;;;29.20;18.38;;;;;;;4.92;74.00;103526.84;4927677;28;20090;-75
2021/03/01 09:21:16;;;;;;;24.48;16.35;;;;;;;4.92;74.02;103532.06;4950450;28;20059;-76
2021/03/01 09:23:46;;;;;;;23.83;15.43;;;;;;;4.94;74.15;103536.34;4945980;28;20059;-75
2021/03/01 09:26:22;;;;;;;19.40;14.00;;;;;;;4.97;74.08;103529.34;4942818;28;20063;-76
2021/03/01 09:28:50;;;;;;;20.27;13.88;;;;;;;4.88;74.13;103522.63;4967250;28;20679;-75
2021/03/01 09:31:27;;;;;;;21.50;13.95;;;;;;;4.84;74.40;103521.00;4950227;28;20067;-74
2021/03/01 09:33:55;;;;;;;23.27;15.07;;;;;;;4.98;74.08;103524.09;4953997;28;20494;-76
2021/03/01 09:36:27;;;;;;;20.33;13.93;;;;;;;5.01;74.42;103531.81;4956293;28;20469;-75
2021/03/01 09:38:53;;;;;;;20.13;13.43;;;;;;;5.00;74.58;103527.50;4949615;28;20113;-77
2021/03/01 09:41:20;;;;;;;19.17;12.75;;;;;;;5.03;73.40;103529.16;4961813;28;20118;-75
2021/03/01 09:43:48;;;;;;;19.42;12.70;;;;;;;5.01;73.57;103530.97;4953366;28;20089;-76
2021/03/01 09:46:16;;;;;;;17.88;12.48;;;;;;;5.00;73.80;103530.13;4938503;28;20123;-76
2021/03/01 09:48:47;;;;;;;20.65;12.82;;;;;;;4.98;73.91;103531.03;4957075;28;20051;-75
2021/03/01 09:51:13;;;;;;;18.73;12.80;;;;;;;5.00;73.79;103530.13;4958617;28;20090;-75
2021/03/01 09:53:40;;;;;;;17.25;12.02;;;;;;;5.06;73.40;103534.28;4956937;28;20578;-76
2021/03/01 09:56:06;;;;;;;16.73;11.77;;;;;;;5.14;73.63;103533.16;4956868;28;20090;-76
2021/03/01 09:58:38;;;;;;;16.95;11.93;;;;;;;5.17;73.62;103533.97;4959538;28;20165;-76
2021/03/01 10:01:17;;;;;;;17.40;12.25;;;;;;;5.27;73.12;103520.66;4941187;29;20170;-75
2021/03/01 10:03:49;;;;;;;16.48;11.43;;;;;;;5.31;73.18;103522.25;4938204;28;20065;-75
2021/03/01 10:06:35;;;;;;;17.30;12.52;;;;;;;5.35;73.51;103525.59;4966768;28;20062;-76
2021/03/01 10:09:10;;;;;;;19.00;11.88;;;;;;;5.39;72.85;103514.22;4943278;28;20113;-75
2021/03/01 10:11:38;;;;;;;16.90;11.48;;;;;;;5.43;72.50;103521.03;4955514;28;20126;-75
2021/03/01 10:14:10;;;;;;;18.92;12.15;;;;;;;5.45;72.36;103520.97;4932650;28;20158;-75
2021/03/01 10:16:39;;;;;;;18.70;12.02;;;;;;;5.51;72.43;103524.25;4944750;28;20138;-75
2021/03/01 10:19:13;;;;;;;15.57;11.73;;;;;;;5.51;71.93;103520.81;4929437;28;20066;-76
2021/03/01 10:21:40;;;;;;;16.33;11.77;;;;;;;5.53;72.48;103519.84;4928674;28;20059;-77
2021/03/01 10:24:07;;;;;;;17.73;11.38;;;;;;;5.60;72.20;103525.72;4943887;28;20059;-75
2021/03/01 10:27:09;;;;;;;18.38;12.18;;;;;;;5.65;72.57;103520.38;4942884;28;20093;-75
2021/03/01 10:29:37;;;;;;;17.10;11.95;;;;;;;5.61;72.09;103517.00;4924390;29;20062;-75
2021/03/01 10:32:15;;;;;;;18.05;12.27;;;;;;;5.66;72.06;103524.66;4938192;28;20514;-75
2021/03/01 10:34:42;;;;;;;17.77;11.93;;;;;;;5.68;72.33;103528.91;4960233;28;20537;-76
2021/03/01 10:37:12;;;;;;;18.23;12.43;;;;;;;5.71;72.03;103523.63;4942557;28;20117;-75
2021/03/01 10:39:40;;;;;;;16.52;10.95;;;;;;;5.70;72.20;103515.84;4965066;28;20090;-75
2021/03/01 10:42:12;;;;;;;18.98;11.70;;;;;;;5.74;72.37;103518.34;4943878;28;20503;-74
2021/03/01 10:44:43;;;;;;;20.60;12.98;;;;;;;5.73;71.57;103514.00;4965941;28;20067;-75
2021/03/01 10:47:19;;;;;;;18.88;13.15;;;;;;;5.75;71.46;103516.56;4964820;28;20475;-74
2021/03/01 10:49:48;;;;;;;18.98;12.13;;;;;;;5.90;71.81;103515.22;4947647;28;20061;-75
2021/03/01 10:52:15;;;;;;;16.88;12.43;;;;;;;5.96;71.68;103511.59;4962047;28;20054;-74
2021/03/01 10:54:48;;;;;;;19.95;12.35;;;;;;;5.92;71.56;103498.66;4956424;28;20661;-77
2021/03/01 10:57:14;;;;;;;17.70;12.65;;;;;;;6.06;71.49;103519.06;4971951;28;20134;-77
2021/03/01 10:59:41;;;;;;;18.60;11.18;;;;;;;5.91;70.93;103509.97;4958238;28;20094;-77
2021/03/01 11:02:07;;;;;;;16.50;11.18;;;;;;;6.04;71.17;103520.88;4962833;28;21567;-76
2021/03/01 11:04:34;;;;;;;17.02;10.63;;;;;;;6.14;71.72;103522.28;4934467;29;20098;-74
2021/03/01 11:07:01;;;;;;;16.60;11.18;;;;;;;6.26;71.44;103522.78;4955270;28;20143;-78
2021/03/01 11:09:27;;;;;;;18.58;11.85;;;;;;;6.36;71.14;103523.31;4959869;28;20066;-76
2021/03/01 11:11:54;;;;;;;19.20;12.15;;;;;;;6.41;70.81;103523.97;4957536;28;20074;-76
2021/03/01 11:14:22;;;;;;;17.15;11.25;;;;;;;6.37;70.68;103510.22;4964877;28;20086;-74
2021/03/01 11:16:48;;;;;;;16.00;11.43;;;;;;;6.49;70.97;103509.78;4938207;28;20062;-74
2021/03/01 11:19:15;;;;;;;15.80;11.02;;;;;;;6.47;70.49;103518.59;4958794;28;20051;-75
2021/03/01 11:21:42;;;;;;;17.48;11.10;;;;;;;6.50;70.33;103516.69;4946698;28;20087;-75
2021/03/01 11:24:09;;;;;;;19.55;12.18;;;;;;;6.48;69.96;103508.06;4960311;28;20059;-76
2021/03/01 11:26:36;;;;;;;15.25;10.05;;;;;;;6.56;69.59;103510.41;4958497;28;20054;-74
2021/03/01 11:29:03;;;;;;;14.98;9.95;;;;;;;6.64;69.31;103504.94;4938202;28;20051;-74
2021/03/01 11:31:32;;;;;;;14.25;9.60;;;;;;;6.61;70.09;103505.06;4939949;28;20573;-74